Time;durP1;ratioP1;P1;durP2;ratioP2;P2;SDS_P1;SDS_P2;PMS_P1;PMS_P2;Temp;Humidity;BMP_temperature;BMP_pressure;BME280_temperature;BME280_humidity;BME280_pressure;Samples;Min_cycle;Max_cycle;Signal;HPM_P1;HPM_P2
2021/10/03 00:01:01;;;;;;;6.37;5.20;;;;;;;;;;5034247;28;20783;-65
2021/10/03 00:03:28;;;;;;;8.47;6.03;;;;;;;;;;5034219;28;21002;-65
2021/10/03 00:05:55;;;;;;;6.10;4.90;;;;;;;;;;5030891;28;20967;-64
2021/10/03 00:08:21;;;;;;;6.47;4.90;;;;;;;;;;5034445;28;20433;-67
2021/10/03 00:10:49;;;;;;;6.00;5.20;;;;;;;;;;5034366;28;20404;-65
2021/10/03 00:13:15;;;;;;;9.70;4.67;;;;;;;;;;5034292;28;20427;-65
2021/10/03 00:15:41;;;;;;;9.10;5.23;;;;;;;;;;5033890;28;20425;-65
2021/10/03 00:18:08;;;;;;;5.70;4.40;;;;;;;;;;5033943;28;20403;-65
2021/10/03 00:20:34;;;;;;;6.20;4.80;;;;;;;;;;5033853;28;20493;-64
2021/10/03 00:23:00;;;;;;;6.50;4.97;;;;;;;;;;5033656;28;20454;-65
2021/10/03 00:25:28;;;;;;;4.83;4.10;;;;;;;;;;5033691;28;20607;-65
2021/10/03 00:27:55;;;;;;;5.50;4.80;;;;;;;;;;5033943;28;20403;-67
2021/10/03 00:30:21;;;;;;;5.40;4.00;;;;;;;;;;5033767;28;20510;-65
2021/10/03 00:32:47;;;;;;;6.33;4.30;;;;;;;;;;5033906;28;20916;-64
2021/10/03 00:35:14;;;;;;;5.57;4.47;;;;;;;;;;5033602;28;20413;-65
2021/10/03 00:37:40;;;;;;;7.27;4.87;;;;;;;;;;5033770;28;20434;-65
2021/10/03 00:40:07;;;;;;;7.37;4.97;;;;;;;;;;5033852;28;20411;-65
2021/10/03 00:42:33;;;;;;;9.20;5.70;;;;;;;;;;5033758;28;20430;-65
2021/10/03 00:44:59;;;;;;;6.03;4.60;;;;;;;;;;5033427;28;20836;-65
2021/10/03 00:47:25;;;;;;;8.17;4.90;;;;;;;;;;5033320;28;20395;-64
2021/10/03 00:49:51;;;;;;;6.03;4.90;;;;;;;;;;5033344;28;20409;-67
2021/10/03 00:52:18;;;;;;;5.53;4.60;;;;;;;;;;5033698;28;20462;-65
2021/10/03 00:54:44;;;;;;;6.20;4.87;;;;;;;;;;5033379;28;20762;-65
2021/10/03 00:57:10;;;;;;;6.30;4.87;;;;;;;;;;5033362;28;20511;-65
2021/10/03 00:59:36;;;;;;;5.57;4.30;;;;;;;;;;5033318;28;20411;-64
2021/10/03 01:02:03;;;;;;;5.40;4.90;;;;;;;;;;5033138;28;20422;-64
2021/10/03 01:04:29;;;;;;;13.80;4.73;;;;;;;;;;5033271;28;20461;-64
2021/10/03 01:06:55;;;;;;;7.40;5.47;;;;;;;;;;5026727;28;20458;-64
2021/10/03 01:09:21;;;;;;;7.93;5.47;;;;;;;;;;5033215;28;20485;-65
2021/10/03 01:11:48;;;;;;;8.00;6.40;;;;;;;;;;5033242;28;20485;-64
2021/10/03 01:14:16;;;;;;;7.00;5.47;;;;;;;;;;5032986;28;20442;-65
2021/10/03 01:16:42;;;;;;;6.43;5.23;;;;;;;;;;5032620;28;20438;-65
2021/10/03 01:19:09;;;;;;;10.20;7.20;;;;;;;;;;5032786;28;20445;-65
2021/10/03 01:21:35;;;;;;;9.13;5.40;;;;;;;;;;5032982;28;20447;-65
2021/10/03 01:24:01;;;;;;;5.57;4.40;;;;;;;;;;5033258;28;20482;-65
2021/10/03 01:26:28;;;;;;;4.80;4.30;;;;;;;;;;5032976;28;20450;-65
2021/10/03 01:28:54;;;;;;;6.47;5.60;;;;;;;;;;5032893;28;20489;-65
2021/10/03 01:31:25;;;;;;;6.00;5.10;;;;;;;;;;5032723;28;20402;-65
2021/10/03 01:33:52;;;;;;;6.67;5.10;;;;;;;;;;5033071;28;20399;-65
2021/10/03 01:36:18;;;;;;;7.40;4.80;;;;;;;;;;5032698;28;20903;-65
2021/10/03 01:38:45;;;;;;;8.40;4.70;;;;;;;;;;5032690;28;20896;-65
2021/10/03 01:41:11;;;;;;;5.33;4.20;;;;;;;;;;5032735;28;20902;-65
2021/10/03 01:43:37;;;;;;;7.07;5.57;;;;;;;;;;5032697;28;20412;-65
2021/10/03 01:46:04;;;;;;;7.00;5.40;;;;;;;;;;5032528;28;20461;-65
2021/10/03 01:48:30;;;;;;;6.77;5.00;;;;;;;;;;5032660;28;20402;-65
2021/10/03 01:51:01;;;;;;;6.17;5.57;;;;;;;;;;5032724;28;20437;-65
2021/10/03 01:53:32;;;;;;;5.90;4.40;;;;;;;;;;5032600;28;20414;-65
2021/10/03 01:55:58;;;;;;;6.03;4.83;;;;;;;;;;5032586;28;20417;-65
2021/10/03 01:58:26;;;;;;;5.30;4.23;;;;;;;;;;5032652;28;20402;-65
2021/10/03 02:00:55;;;;;;;5.97;3.83;;;;;;;;;;5032771;28;20431;-65
2021/10/03 02:03:21;;;;;;;5.33;3.93;;;;;;;;;;5032431;28;20433;-65
2021/10/03 02:05:47;;;;;;;6.77;4.23;;;;;;;;;;5029752;28;20470;-65
2021/10/03 02:08:14;;;;;;;4.80;4.00;;;;;;;;;;5031616;28;20414;-65
2021/10/03 02:10:42;;;;;;;4.30;3.90;;;;;;;;;;5032395;28;20911;-65
2021/10/03 02:13:08;;;;;;;5.80;4.40;;;;;;;;;;5032254;28;20429;-65
2021/10/03 02:15:35;;;;;;;5.37;4.17;;;;;;;;;;5032432;28;20476;-65
2021/10/03 02:18:04;;;;;;;5.03;3.93;;;;;;;;;;5032629;28;20461;-66
2021/10/03 02:20:30;;;;;;;4.23;3.30;;;;;;;;;;5032644;28;20785;-65
2021/10/03 02:22:56;;;;;;;4.77;3.90;;;;;;;;;;5032127;28;20481;-65
2021/10/03 02:25:22;;;;;;;4.83;4.33;;;;;;;;;;5032318;28;20850;-65
2021/10/03 02:27:48;;;;;;;4.40;3.70;;;;;;;;;;5032334;28;20934;-65
2021/10/03 02:30:14;;;;;;;4.67;3.73;;;;;;;;;;5036078;28;20402;-65
2021/10/03 02:32:41;;;;;;;6.00;4.10;;;;;;;;;;5051311;28;20801;-66
2021/10/03 02:35:09;;;;;;;8.63;4.40;;;;;;;;;;5036249;28;20742;-65
2021/10/03 02:37:35;;;;;;;5.00;4.47;;;;;;;;;;5028843;28;20435;-66
2021/10/03 02:40:01;;;;;;;9.07;4.60;;;;;;;;;;5024476;28;20419;-66
2021/10/03 02:42:28;;;;;;;4.83;3.37;;;;;;;;;;5020932;28;20488;-66
2021/10/03 02:44:54;;;;;;;5.23;4.10;;;;;;;;;;5035855;28;20820;-66
2021/10/03 02:47:20;;;;;;;6.97;3.97;;;;;;;;;;5035925;28;20452;-66
2021/10/03 02:49:46;;;;;;;5.80;4.50;;;;;;;;;;5035662;28;20402;-65
2021/10/03 02:52:13;;;;;;;5.77;4.33;;;;;;;;;;5035830;28;20429;-65
2021/10/03 02:54:39;;;;;;;5.13;4.03;;;;;;;;;;5035951;28;20764;-65
2021/10/03 02:57:07;;;;;;;5.97;4.47;;;;;;;;;;5035986;28;20744;-65
2021/10/03 02:59:33;;;;;;;5.53;4.30;;;;;;;;;;5035662;28;20399;-65
2021/10/03 03:01:59;;;;;;;6.47;4.20;;;;;;;;;;5035411;28;20505;-65
2021/10/03 03:04:25;;;;;;;4.77;3.90;;;;;;;;;;5035400;28;20541;-65
2021/10/03 03:06:51;;;;;;;4.90;3.73;;;;;;;;;;5035505;28;20402;-65
2021/10/03 03:09:17;;;;;;;6.40;4.13;;;;;;;;;;5035434;28;20398;-65
2021/10/03 03:11:43;;;;;;;5.10;4.30;;;;;;;;;;5035247;28;20921;-65
2021/10/03 03:14:09;;;;;;;4.63;3.80;;;;;;;;;;5035254;28;20892;-64
2021/10/03 03:16:45;;;;;;;6.57;5.00;;;;;;;;;;5035226;28;20402;-65
2021/10/03 03:19:11;;;;;;;7.50;4.80;;;;;;;;;;5035176;28;20497;-65
2021/10/03 03:21:38;;;;;;;5.30;4.50;;;;;;;;;;5035523;28;20453;-65
2021/10/03 03:24:04;;;;;;;5.03;3.80;;;;;;;;;;5032562;28;20854;-65
2021/10/03 03:26:31;;;;;;;5.17;3.70;;;;;;;;;;5015093;28;20509;-65
2021/10/03 03:28:57;;;;;;;9.10;4.37;;;;;;;;;;5027689;28;20430;-64
2021/10/03 03:31:23;;;;;;;7.10;4.70;;;;;;;;;;5034660;28;20548;-64
2021/10/03 03:33:49;;;;;;;5.30;3.50;;;;;;;;;;5034721;28;20403;-64
2021/10/03 03:36:15;;;;;;;7.70;4.20;;;;;;;;;;5034824;28;20409;-67
2021/10/03 03:38:41;;;;;;;6.00;3.77;;;;;;;;;;5034933;28;20867;-65
2021/10/03 03:41:07;;;;;;;4.60;4.00;;;;;;;;;;5034265;28;20456;-65
2021/10/03 03:43:34;;;;;;;4.90;4.03;;;;;;;;;;5034714;28;20419;-65
2021/10/03 03:46:00;;;;;;;6.13;3.87;;;;;;;;;;5034496;28;20504;-64
2021/10/03 03:48:26;;;;;;;4.73;4.00;;;;;;;;;;5034762;28;20409;-64
2021/10/03 03:50:52;;;;;;;5.40;4.33;;;;;;;;;;5034899;28;20791;-64
2021/10/03 03:53:18;;;;;;;6.60;3.40;;;;;;;;;;5034617;28;20787;-64
2021/10/03 03:55:44;;;;;;;4.80;3.73;;;;;;;;;;5034383;28;20769;-64
2021/10/03 03:58:10;;;;;;;8.40;3.77;;;;;;;;;;5034696;28;20395;-64
2021/10/03 04:00:36;;;;;;;4.63;3.30;;;;;;;;;;5034356;28;20415;-67
2021/10/03 04:03:02;;;;;;;3.33;3.00;;;;;;;;;;5049728;28;20433;-67
2021/10/03 04:05:28;;;;;;;4.70;4.07;;;;;;;;;;5034487;28;20450;-64
2021/10/03 04:07:54;;;;;;;4.63;3.90;;;;;;;;;;5024902;28;20481;-65
2021/10/03 04:10:20;;;;;;;4.30;3.90;;;;;;;;;;5014466;28;20399;-67
2021/10/03 04:12:46;;;;;;;4.70;3.60;;;;;;;;;;5014358;28;20462;-64
2021/10/03 04:15:12;;;;;;;5.07;4.00;;;;;;;;;;5014704;28;20759;-64
2021/10/03 04:17:39;;;;;;;4.50;3.43;;;;;;;;;;5014721;28;20404;-65
2021/10/03 04:20:06;;;;;;;8.10;3.60;;;;;;;;;;5014853;28;20415;-65
2021/10/03 04:22:32;;;;;;;5.10;4.10;;;;;;;;;;5014249;28;20506;-66
2021/10/03 04:24:58;;;;;;;5.00;3.90;;;;;;;;;;5014283;28;20455;-65
2021/10/03 04:27:24;;;;;;;5.07;4.50;;;;;;;;;;5014270;28;20434;-65
2021/10/03 04:29:50;;;;;;;6.73;3.83;;;;;;;;;;5014347;28;20458;-66
2021/10/03 04:32:16;;;;;;;5.23;3.63;;;;;;;;;;5014087;28;20990;-65
2021/10/03 04:34:43;;;;;;;4.90;4.07;;;;;;;;;;5014138;28;20763;-65
2021/10/03 04:37:09;;;;;;;4.10;3.63;;;;;;;;;;5014154;28;20414;-65
2021/10/03 04:39:36;;;;;;;7.07;3.33;;;;;;;;;;5014148;28;20813;-65
2021/10/03 04:42:02;;;;;;;4.07;3.20;;;;;;;;;;5013946;28;20427;-65
2021/10/03 04:44:29;;;;;;;10.03;4.10;;;;;;;;;;5013929;28;20403;-65
2021/10/03 04:46:55;;;;;;;4.90;3.30;;;;;;;;;;5013934;28;20402;-65
2021/10/03 04:49:21;;;;;;;3.47;3.17;;;;;;;;;;5014150;28;20737;-65
2021/10/03 04:51:47;;;;;;;3.73;3.27;;;;;;;;;;5012957;28;20952;-65
2021/10/03 04:54:13;;;;;;;4.30;3.30;;;;;;;;;;5013840;28;20400;-65
2021/10/03 04:56:39;;;;;;;3.63;3.30;;;;;;;;;;5014055;28;20415;-65
2021/10/03 04:59:05;;;;;;;6.70;3.67;;;;;;;;;;5013765;28;20407;-65
2021/10/03 05:01:31;;;;;;;3.97;3.30;;;;;;;;;;5013570;28;20403;-65
2021/10/03 05:03:57;;;;;;;3.93;3.17;;;;;;;;;;5013620;28;20455;-65
2021/10/03 05:06:24;;;;;;;4.60;3.60;;;;;;;;;;5013503;28;20451;-65
2021/10/03 05:08:50;;;;;;;7.07;3.53;;;;;;;;;;5013813;28;20396;-66
2021/10/03 05:11:16;;;;;;;5.07;4.07;;;;;;;;;;5013520;28;20486;-66
2021/10/03 05:13:42;;;;;;;3.80;2.90;;;;;;;;;;5013603;28;20465;-65
2021/10/03 05:16:08;;;;;;;6.10;3.80;;;;;;;;;;5013432;28;20915;-65
2021/10/03 05:18:36;;;;;;;3.77;3.27;;;;;;;;;;5013381;28;20904;-65
2021/10/03 05:21:03;;;;;;;4.63;3.13;;;;;;;;;;5013701;28;20486;-65
2021/10/03 05:23:29;;;;;;;4.40;3.00;;;;;;;;;;5013248;28;20447;-65
2021/10/03 05:25:55;;;;;;;3.70;3.20;;;;;;;;;;5013584;28;20557;-65
2021/10/03 05:28:21;;;;;;;3.83;2.93;;;;;;;;;;5013371;28;20438;-65
2021/10/03 05:30:47;;;;;;;4.87;3.57;;;;;;;;;;5013294;28;20396;-65
2021/10/03 05:33:13;;;;;;;6.10;3.87;;;;;;;;;;5013462;28;20451;-65
2021/10/03 05:35:39;;;;;;;4.60;3.30;;;;;;;;;;5013299;28;20408;-65
2021/10/03 05:38:05;;;;;;;3.30;2.90;;;;;;;;;;5013649;28;20400;-65
2021/10/03 05:40:31;;;;;;;6.83;3.13;;;;;;;;;;5013133;28;20411;-65
2021/10/03 05:42:58;;;;;;;4.27;3.13;;;;;;;;;;5013341;28;20435;-66
2021/10/03 05:45:24;;;;;;;5.83;3.50;;;;;;;;;;5013045;28;20447;-65
2021/10/03 05:47:50;;;;;;;3.77;3.07;;;;;;;;;;5013357;28;20769;-65
2021/10/03 05:50:16;;;;;;;4.90;3.47;;;;;;;;;;5013320;28;20506;-66
2021/10/03 05:52:42;;;;;;;4.87;3.63;;;;;;;;;;5013080;28;20946;-66
2021/10/03 05:55:08;;;;;;;3.60;3.10;;;;;;;;;;5013289;28;20414;-66
2021/10/03 05:57:35;;;;;;;4.77;3.60;;;;;;;;;;5012966;28;20407;-66
2021/10/03 06:00:01;;;;;;;4.20;3.40;;;;;;;;;;5013117;28;20408;-65
2021/10/03 06:02:27;;;;;;;4.33;3.20;;;;;;;;;;5012910;28;20427;-65
2021/10/03 06:04:53;;;;;;;3.83;3.17;;;;;;;;;;5016500;28;20462;-65
2021/10/03 06:07:19;;;;;;;6.80;3.90;;;;;;;;;;5016640;28;20434;-67
2021/10/03 06:09:45;;;;;;;5.10;3.70;;;;;;;;;;5035751;28;20451;-65
2021/10/03 06:12:11;;;;;;;5.23;3.63;;;;;;;;;;5036745;28;20424;-65
2021/10/03 06:14:37;;;;;;;6.03;3.43;;;;;;;;;;5036622;28;20560;-65
2021/10/03 06:17:03;;;;;;;4.10;3.20;;;;;;;;;;5036458;28;20472;-66
2021/10/03 06:19:29;;;;;;;5.63;3.97;;;;;;;;;;5036414;28;20895;-66
2021/10/03 06:21:57;;;;;;;3.77;3.37;;;;;;;;;;5036217;28;20481;-65
2021/10/03 06:24:23;;;;;;;4.20;3.20;;;;;;;;;;5036604;28;20414;-65
2021/10/03 06:26:49;;;;;;;4.93;3.67;;;;;;;;;;5036395;28;20410;-65
2021/10/03 06:29:16;;;;;;;4.40;3.37;;;;;;;;;;5036433;28;20469;-66
2021/10/03 06:31:42;;;;;;;3.70;2.90;;;;;;;;;;5036095;28;20418;-65
2021/10/03 06:34:08;;;;;;;4.70;3.60;;;;;;;;;;5036317;28;20862;-66
2021/10/03 06:36:34;;;;;;;6.87;3.47;;;;;;;;;;5035997;28;20398;-66
2021/10/03 06:39:00;;;;;;;4.00;3.37;;;;;;;;;;5035977;28;20402;-65
2021/10/03 06:41:26;;;;;;;4.53;3.70;;;;;;;;;;5035908;28;20394;-65
2021/10/03 06:43:52;;;;;;;5.43;3.23;;;;;;;;;;5035888;28;20441;-65
2021/10/03 06:46:19;;;;;;;4.40;3.13;;;;;;;;;;5035857;28;20449;-65
2021/10/03 06:48:45;;;;;;;5.40;3.43;;;;;;;;;;5035854;28;20398;-65
2021/10/03 06:51:12;;;;;;;4.93;3.70;;;;;;;;;;5035869;28;20930;-65
2021/10/03 06:53:38;;;;;;;4.53;3.20;;;;;;;;;;5035901;28;20405;-65
2021/10/03 06:56:04;;;;;;;4.50;3.40;;;;;;;;;;5035863;28;20460;-65
2021/10/03 06:58:31;;;;;;;4.93;3.00;;;;;;;;;;5035840;28;20398;-65
2021/10/03 07:00:57;;;;;;;4.37;3.37;;;;;;;;;;5035035;28;20800;-65
2021/10/03 07:03:23;;;;;;;6.23;4.40;;;;;;;;;;5034824;28;20434;-65
2021/10/03 07:05:49;;;;;;;5.77;4.20;;;;;;;;;;5034363;28;20454;-65
2021/10/03 07:08:15;;;;;;;4.40;3.43;;;;;;;;;;5035730;28;20461;-64
2021/10/03 07:10:41;;;;;;;3.70;2.97;;;;;;;;;;5034320;28;20798;-65
2021/10/03 07:13:07;;;;;;;4.57;3.50;;;;;;;;;;5035105;28;20438;-63
2021/10/03 07:15:34;;;;;;;3.60;3.10;;;;;;;;;;5033723;28;20441;-64
2021/10/03 07:18:00;;;;;;;7.67;3.07;;;;;;;;;;5032920;28;20415;-63
2021/10/03 07:20:26;;;;;;;4.07;2.97;;;;;;;;;;5034004;28;20457;-63
2021/10/03 07:22:52;;;;;;;4.57;3.60;;;;;;;;;;5033473;28;20450;-63
2021/10/03 07:25:18;;;;;;;5.83;3.77;;;;;;;;;;5034175;28;20830;-65
2021/10/03 07:27:44;;;;;;;3.57;3.13;;;;;;;;;;5035074;28;20910;-65
2021/10/03 07:30:11;;;;;;;3.80;3.07;;;;;;;;;;5034242;28;20803;-65
2021/10/03 07:32:37;;;;;;;4.97;3.00;;;;;;;;;;5034669;28;20430;-65
2021/10/03 07:35:04;;;;;;;4.60;3.27;;;;;;;;;;5034746;28;20426;-66
2021/10/03 07:37:31;;;;;;;4.60;3.37;;;;;;;;;;5034815;28;20497;-67
2021/10/03 07:39:57;;;;;;;5.13;3.27;;;;;;;;;;5034315;28;20947;-65
2021/10/03 07:42:24;;;;;;;3.77;3.37;;;;;;;;;;5035102;28;20998;-64
2021/10/03 07:44:50;;;;;;;6.10;3.67;;;;;;;;;;5034059;28;20455;-68
2021/10/03 07:47:16;;;;;;;5.70;2.47;;;;;;;;;;5034984;28;20766;-65
2021/10/03 07:49:42;;;;;;;5.33;3.63;;;;;;;;;;5034550;28;20410;-68
2021/10/03 07:52:08;;;;;;;5.33;3.60;;;;;;;;;;5034484;28;20518;-65
2021/10/03 07:54:34;;;;;;;5.13;3.40;;;;;;;;;;5034823;28;20430;-66
2021/10/03 07:57:00;;;;;;;3.60;2.73;;;;;;;;;;5034431;28;20421;-63
2021/10/03 07:59:27;;;;;;;4.03;2.80;;;;;;;;;;5034504;28;20438;-66
2021/10/03 08:01:53;;;;;;;4.00;2.67;;;;;;;;;;5034186;28;20938;-65
2021/10/03 08:04:19;;;;;;;4.57;3.07;;;;;;;;;;5034129;28;20930;-65
2021/10/03 08:06:45;;;;;;;3.93;3.00;;;;;;;;;;5034205;28;20462;-66
2021/10/03 08:09:11;;;;;;;4.00;3.10;;;;;;;;;;5028678;28;20447;-69
2021/10/03 08:11:37;;;;;;;3.80;2.80;;;;;;;;;;5026658;28;20489;-73
2021/10/03 08:14:03;;;;;;;3.73;2.40;;;;;;;;;;5034343;28;20418;-70
2021/10/03 08:16:29;;;;;;;4.20;3.10;;;;;;;;;;5031630;28;20492;-70
2021/10/03 08:18:58;;;;;;;4.30;3.00;;;;;;;;;;5028648;28;20423;-71
2021/10/03 08:21:24;;;;;;;4.13;2.63;;;;;;;;;;5033037;28;20426;-69
2021/10/03 08:23:50;;;;;;;3.50;2.93;;;;;;;;;;5032503;28;20411;-72
2021/10/03 08:26:16;;;;;;;3.53;2.63;;;;;;;;;;5033067;28;20446;-71
2021/10/03 08:28:42;;;;;;;4.30;2.93;;;;;;;;;;5034061;28;20421;-72
2021/10/03 08:31:08;;;;;;;4.23;3.20;;;;;;;;;;5032836;28;20490;-71
2021/10/03 08:33:35;;;;;;;3.73;2.97;;;;;;;;;;5034221;28;20434;-71
2021/10/03 08:36:01;;;;;;;6.17;3.43;;;;;;;;;;5033972;28;20930;-71
2021/10/03 08:38:27;;;;;;;4.70;2.97;;;;;;;;;;5034248;28;20417;-71
2021/10/03 08:40:53;;;;;;;3.67;2.73;;;;;;;;;;5033881;28;20442;-71
2021/10/03 08:43:19;;;;;;;3.80;2.80;;;;;;;;;;5033537;28;20470;-71
2021/10/03 08:45:45;;;;;;;3.87;2.63;;;;;;;;;;5033608;28;20505;-71
2021/10/03 08:48:13;;;;;;;7.40;3.10;;;;;;;;;;5033614;28;20446;-71
2021/10/03 08:50:39;;;;;;;2.93;2.00;;;;;;;;;;5034078;28;20398;-71
2021/10/03 08:53:05;;;;;;;4.47;3.03;;;;;;;;;;5033546;28;20754;-71
2021/10/03 08:55:31;;;;;;;5.40;2.97;;;;;;;;;;5033494;28;20409;-71
2021/10/03 08:57:57;;;;;;;2.93;2.47;;;;;;;;;;5033434;28;20468;-71
2021/10/03 09:00:24;;;;;;;2.67;2.13;;;;;;;;;;5033514;28;20398;-70
2021/10/03 09:03:06;;;;;;;6.40;2.73;;;;;;;;;;5033652;28;20429;-71
2021/10/03 09:05:32;;;;;;;3.33;2.50;;;;;;;;;;5033233;28;20446;-71
2021/10/03 09:07:59;;;;;;;7.33;2.00;;;;;;;;;;5033526;28;20394;-71
2021/10/03 09:10:26;;;;;;;3.90;2.33;;;;;;;;;;5026779;28;20419;-72
2021/10/03 09:12:56;;;;;;;3.50;2.50;;;;;;;;;;5013299;28;20497;-71
2021/10/03 09:15:22;;;;;;;4.57;2.97;;;;;;;;;;5013368;28;20407;-71
2021/10/03 09:17:51;;;;;;;3.60;2.60;;;;;;;;;;5013399;28;20414;-71
2021/10/03 09:20:19;;;;;;;3.03;2.30;;;;;;;;;;5013598;28;20983;-71
2021/10/03 09:23:03;;;;;;;3.70;2.73;;;;;;;;;;5054829;22;20488;-59
2021/10/03 09:25:32;;;;;;;3.87;2.53;;;;;;;;;;5053182;28;20461;-60
2021/10/03 09:27:59;;;;;;;3.67;2.20;;;;;;;;;;5053394;28;20406;-59
2021/10/03 09:30:25;;;;;;;3.63;2.00;;;;;;;;;;5053116;28;20385;-59
2021/10/03 09:32:56;;;;;;;3.70;2.53;;;;;;;;;;5052941;28;20922;-58
2021/10/03 09:35:24;;;;;;;3.73;2.20;;;;;;;;;;5053376;28;20397;-59
2021/10/03 09:37:50;;;;;;;3.20;2.30;;;;;;;;;;5052730;28;20976;-58
2021/10/03 09:40:16;;;;;;;2.60;1.90;;;;;;;;;;5052854;28;20436;-59
2021/10/03 09:43:03;;;;;;;4.30;2.20;;;;;;;;;;5053202;28;20478;-56
2021/10/03 09:45:30;;;;;;;4.37;2.80;;;;;;;;;;5052902;28;21059;-59
2021/10/03 09:47:58;;;;;;;2.60;1.80;;;;;;;;;;5053133;28;20489;-60
2021/10/03 09:50:24;;;;;;;3.23;2.43;;;;;;;;;;5052997;28;20405;-59
2021/10/03 09:52:50;;;;;;;3.20;2.33;;;;;;;;;;5052936;28;20770;-58
2021/10/03 09:55:18;;;;;;;3.03;2.13;;;;;;;;;;5052929;28;20802;-61
2021/10/03 09:57:45;;;;;;;3.23;2.30;;;;;;;;;;5050220;28;20438;-58
2021/10/03 10:00:12;;;;;;;5.63;2.57;;;;;;;;;;5052618;28;20603;-58
2021/10/03 10:02:39;;;;;;;3.70;2.67;;;;;;;;;;5052497;28;20425;-59
2021/10/03 10:05:05;;;;;;;5.20;2.00;;;;;;;;;;5038176;28;20596;-58
2021/10/03 10:07:34;;;;;;;3.20;2.27;;;;;;;;;;5033063;28;20410;-60
2021/10/03 10:10:00;;;;;;;3.23;2.00;;;;;;;;;;5032484;28;20903;-59
2021/10/03 10:12:27;;;;;;;3.57;2.60;;;;;;;;;;5032790;28;20422;-62
2021/10/03 10:15:04;;;;;;;4.40;4.00;;;;;;;;;;5032567;28;20421;-60
2021/10/03 10:17:31;;;;;;;3.70;2.50;;;;;;;;;;5032920;28;20754;-59
2021/10/03 10:20:22;;;;;;;2.40;2.10;;;;;;;;;;5033159;28;20411;-60
2021/10/03 10:22:55;;;;;;;2.97;2.00;;;;;;;;;;5027171;28;20592;-61
2021/10/03 10:25:37;;;;;;;3.07;2.40;;;;;;;;;;5032656;28;20446;-60
2021/10/03 10:28:06;;;;;;;5.40;2.67;;;;;;;;;;5032532;28;20387;-60
2021/10/03 10:30:33;;;;;;;4.37;2.80;;;;;;;;;;5032752;28;20773;-61
2021/10/03 10:33:00;;;;;;;4.83;2.57;;;;;;;;;;5032637;28;20532;-59
2021/10/03 10:35:27;;;;;;;4.50;2.17;;;;;;;;;;5032623;28;20486;-59
2021/10/03 10:37:56;;;;;;;5.30;2.40;;;;;;;;;;5032597;28;20410;-60
2021/10/03 10:40:22;;;;;;;3.33;2.17;;;;;;;;;;5032516;28;20469;-60
2021/10/03 10:43:03;;;;;;;4.60;2.27;;;;;;;;;;5032233;28;20426;-60
2021/10/03 10:45:41;;;;;;;4.33;2.20;;;;;;;;;;5032570;28;20595;-59
2021/10/03 10:48:07;;;;;;;4.60;2.57;;;;;;;;;;5032410;28;20883;-59
2021/10/03 10:50:34;;;;;;;5.63;2.30;;;;;;;;;;5033238;28;20425;-59
2021/10/03 10:53:22;;;;;;;3.60;2.33;;;;;;;;;;5035902;28;20422;-57
2021/10/03 10:56:02;;;;;;;2.90;2.17;;;;;;;;;;5035863;28;20406;-59
2021/10/03 10:58:28;;;;;;;3.10;2.33;;;;;;;;;;5036620;28;20410;-60
2021/10/03 11:00:59;;;;;;;4.10;2.37;;;;;;;;;;5055871;28;20427;-60
2021/10/03 11:03:43;;;;;;;3.20;2.20;;;;;;;;;;5054852;28;20459;-59
2021/10/03 11:06:09;;;;;;;3.93;2.77;;;;;;;;;;5035689;28;20458;-60
2021/10/03 11:08:54;;;;;;;3.23;2.23;;;;;;;;;;5035391;28;20407;-58
2021/10/03 11:11:20;;;;;;;3.27;2.30;;;;;;;;;;5035502;28;20730;-59
2021/10/03 11:13:46;;;;;;;2.50;2.00;;;;;;;;;;5035877;28;20964;-60
2021/10/03 11:16:22;;;;;;;2.40;1.80;;;;;;;;;;5035737;28;20430;-60
2021/10/03 11:18:51;;;;;;;2.97;2.23;;;;;;;;;;5035514;28;20394;-62
2021/10/03 11:21:22;;;;;;;4.00;2.10;;;;;;;;;;5035652;28;20797;-60
2021/10/03 11:23:48;;;;;;;2.40;1.80;;;;;;;;;;5035204;28;20445;-60
2021/10/03 11:26:15;;;;;;;2.90;2.20;;;;;;;;;;5035320;28;21025;-60
2021/10/03 11:28:48;;;;;;;2.70;2.10;;;;;;;;;;5035666;28;20399;-60
2021/10/03 11:31:14;;;;;;;3.83;1.83;;;;;;;;;;5035417;28;20434;-59
2021/10/03 11:33:47;;;;;;;3.20;2.30;;;;;;;;;;5035449;28;20781;-59
2021/10/03 11:36:13;;;;;;;4.63;2.00;;;;;;;;;;5035257;28;20551;-60
2021/10/03 11:38:49;;;;;;;2.47;2.00;;;;;;;;;;5033829;28;20410;-60
2021/10/03 11:41:15;;;;;;;2.87;1.73;;;;;;;;;;5035400;28;20441;-60
2021/10/03 11:43:41;;;;;;;4.70;2.13;;;;;;;;;;5034657;28;20453;-60
2021/10/03 11:46:07;;;;;;;3.63;2.03;;;;;;;;;;5034723;28;20942;-60
2021/10/03 11:48:33;;;;;;;3.50;2.70;;;;;;;;;;5034796;28;20890;-60
2021/10/03 11:51:00;;;;;;;2.40;1.73;;;;;;;;;;5034907;28;20459;-60
2021/10/03 11:53:29;;;;;;;2.90;1.90;;;;;;;;;;5034975;28;20469;-60
2021/10/03 11:56:17;;;;;;;2.73;1.93;;;;;;;;;;5034678;28;20407;-60
2021/10/03 11:58:44;;;;;;;3.00;2.13;;;;;;;;;;5037297;28;20428;-60
2021/10/03 12:01:10;;;;;;;5.57;2.77;;;;;;;;;;5054039;28;20501;-60
2021/10/03 12:04:05;;;;;;;3.20;2.47;;;;;;;;;;5054216;28;20413;-60
2021/10/03 12:06:34;;;;;;;4.10;2.23;;;;;;;;;;5041554;28;20536;-60
2021/10/03 12:09:10;;;;;;;3.77;2.50;;;;;;;;;;5054730;28;20425;-60
2021/10/03 12:11:48;;;;;;;2.50;2.00;;;;;;;;;;5054247;28;20390;-61
2021/10/03 12:14:14;;;;;;;4.80;2.10;;;;;;;;;;5054249;28;20386;-61
2021/10/03 12:16:53;;;;;;;2.77;1.73;;;;;;;;;;5054037;28;20401;-60
2021/10/03 12:19:20;;;;;;;2.87;2.17;;;;;;;;;;5054043;28;20433;-60
2021/10/03 12:21:46;;;;;;;2.80;2.10;;;;;;;;;;5054130;28;20504;-60
2021/10/03 12:24:12;;;;;;;4.60;2.03;;;;;;;;;;5054163;28;20397;-61
2021/10/03 12:26:38;;;;;;;4.60;2.20;;;;;;;;;;5054262;28;20827;-60
2021/10/03 12:29:07;;;;;;;3.40;2.33;;;;;;;;;;5053806;28;20397;-60
2021/10/03 12:31:36;;;;;;;2.93;2.03;;;;;;;;;;5054018;28;20805;-63
2021/10/03 12:34:14;;;;;;;8.70;3.33;;;;;;;;;;5053801;28;20886;-62
2021/10/03 12:36:41;;;;;;;12.83;2.67;;;;;;;;;;5053684;28;20990;-66
2021/10/03 12:39:07;;;;;;;5.63;2.30;;;;;;;;;;5054808;28;20402;-64
2021/10/03 12:41:33;;;;;;;3.90;2.33;;;;;;;;;;5055386;28;20433;-64
2021/10/03 12:43:59;;;;;;;4.80;2.37;;;;;;;;;;5053612;28;20456;-62
2021/10/03 12:46:26;;;;;;;5.27;2.30;;;;;;;;;;5053318;28;20457;-64
2021/10/03 12:48:52;;;;;;;4.23;2.10;;;;;;;;;;5053280;28;20886;-64
2021/10/03 12:51:19;;;;;;;6.00;2.10;;;;;;;;;;5053367;28;20402;-63
2021/10/03 12:53:45;;;;;;;3.40;2.17;;;;;;;;;;5053370;28;20428;-64
2021/10/03 12:56:11;;;;;;;3.00;2.03;;;;;;;;;;5053560;28;20406;-64
2021/10/03 12:58:39;;;;;;;3.00;2.10;;;;;;;;;;5051235;28;20408;-63
2021/10/03 13:01:05;;;;;;;2.70;1.90;;;;;;;;;;5033904;28;20418;-65
2021/10/03 13:03:34;;;;;;;3.70;2.40;;;;;;;;;;5033700;28;20499;-65
2021/10/03 13:06:01;;;;;;;3.00;2.30;;;;;;;;;;5033389;28;20446;-64
2021/10/03 13:08:27;;;;;;;2.80;2.00;;;;;;;;;;5033564;28;20401;-65
2021/10/03 13:10:53;;;;;;;3.70;2.43;;;;;;;;;;5033468;28;20395;-63
2021/10/03 13:13:19;;;;;;;4.13;2.23;;;;;;;;;;5032579;28;20984;-62
2021/10/03 13:15:45;;;;;;;2.80;2.03;;;;;;;;;;5033407;28;20457;-63
2021/10/03 13:18:11;;;;;;;3.37;2.17;;;;;;;;;;5033359;28;20489;-63
2021/10/03 13:20:37;;;;;;;3.67;1.97;;;;;;;;;;5033351;28;20403;-64
2021/10/03 13:23:05;;;;;;;2.90;2.07;;;;;;;;;;5033077;28;20465;-63
2021/10/03 13:25:31;;;;;;;3.03;2.03;;;;;;;;;;5033242;28;20583;-64
2021/10/03 13:27:58;;;;;;;6.80;1.70;;;;;;;;;;5033185;28;20965;-64
2021/10/03 13:30:24;;;;;;;3.60;1.77;;;;;;;;;;5033130;28;20395;-64
2021/10/03 13:32:50;;;;;;;3.17;1.80;;;;;;;;;;5032938;28;20444;-64
2021/10/03 13:35:17;;;;;;;3.17;2.37;;;;;;;;;;5033391;28;20433;-64
2021/10/03 13:37:43;;;;;;;5.57;5.00;;;;;;;;;;5033284;28;20490;-63
2021/10/03 13:40:10;;;;;;;4.50;3.47;;;;;;;;;;5033097;28;20410;-63
2021/10/03 13:42:36;;;;;;;3.13;2.10;;;;;;;;;;5033067;28;20422;-63
2021/10/03 13:45:03;;;;;;;4.10;3.17;;;;;;;;;;5033107;28;20450;-63
2021/10/03 13:47:29;;;;;;;2.87;2.13;;;;;;;;;;5032857;28;20395;-64
2021/10/03 13:49:55;;;;;;;3.30;2.03;;;;;;;;;;5033028;28;20399;-63
2021/10/03 13:52:21;;;;;;;3.07;2.23;;;;;;;;;;5032940;28;20551;-65
2021/10/03 13:54:47;;;;;;;3.03;2.10;;;;;;;;;;5033016;28;20418;-65
2021/10/03 13:57:13;;;;;;;3.97;2.10;;;;;;;;;;5032751;28;20481;-65
2021/10/03 13:59:39;;;;;;;3.03;2.03;;;;;;;;;;5032654;28;20414;-64
2021/10/03 14:02:05;;;;;;;2.73;1.80;;;;;;;;;;5032801;28;20989;-64
2021/10/03 14:04:31;;;;;;;3.47;2.87;;;;;;;;;;5033144;28;20403;-65
2021/10/03 14:06:57;;;;;;;3.40;2.83;;;;;;;;;;5032686;28;20533;-64
2021/10/03 14:09:23;;;;;;;4.13;2.70;;;;;;;;;;5032938;28;20402;-64
2021/10/03 14:11:49;;;;;;;3.37;2.70;;;;;;;;;;5032553;28;20453;-64
2021/10/03 14:14:16;;;;;;;5.13;3.33;;;;;;;;;;5032797;28;20391;-63
2021/10/03 14:16:42;;;;;;;3.93;2.37;;;;;;;;;;5032693;28;20421;-63
2021/10/03 14:19:08;;;;;;;4.37;2.50;;;;;;;;;;5032660;28;20403;-63
2021/10/03 14:21:34;;;;;;;3.40;2.60;;;;;;;;;;5032476;28;20751;-65
2021/10/03 14:24:00;;;;;;;3.27;2.40;;;;;;;;;;5033011;28;20463;-64
2021/10/03 14:26:26;;;;;;;3.83;2.47;;;;;;;;;;5036468;28;20457;-63
2021/10/03 14:28:52;;;;;;;4.40;2.20;;;;;;;;;;5036560;28;20397;-62
2021/10/03 14:31:18;;;;;;;3.27;2.10;;;;;;;;;;5036110;28;20426;-63
2021/10/03 14:33:44;;;;;;;3.20;2.20;;;;;;;;;;5036000;28;20429;-64
2021/10/03 14:36:11;;;;;;;5.40;2.13;;;;;;;;;;5036268;28;20406;-64
2021/10/03 14:38:37;;;;;;;3.90;2.73;;;;;;;;;;5036244;28;20863;-63
2021/10/03 14:41:03;;;;;;;3.33;2.70;;;;;;;;;;5036601;28;20448;-63
2021/10/03 14:43:29;;;;;;;3.53;2.33;;;;;;;;;;5036033;28;20428;-63